Time;durP1;ratioP1;P1;durP2;ratioP2;P2;SDS_P1;SDS_P2;PMS_P1;PMS_P2;Temp;Humidity;BMP_temperature;BMP_pressure;BME280_temperature;BME280_humidity;BME280_pressure;Samples;Min_cycle;Max_cycle;Signal;HPM_P1;HPM_P2
2023/10/05 00:03:44;;;;;;;5.10;3.15;;;15.70;64.20;;;;;;5037581;28;20447;-84
2023/10/05 00:06:17;;;;;;;4.43;3.10;;;15.70;64.20;;;;;;5036009;28;20109;-84
2023/10/05 00:08:47;;;;;;;6.78;3.13;;;15.70;64.20;;;;;;5036404;28;20030;-84
2023/10/05 00:11:23;;;;;;;4.78;3.05;;;15.70;64.20;;;;;;5036556;28;20143;-85
2023/10/05 00:13:57;;;;;;;5.57;3.20;;;15.70;64.20;;;;;;5036533;28;20025;-84
2023/10/05 00:16:23;;;;;;;5.05;3.53;;;15.60;64.00;;;;;;5035911;28;20029;-84
2023/10/05 00:18:51;;;;;;;4.88;3.10;;;15.60;63.90;;;;;;5034800;28;20025;-85
2023/10/05 00:21:19;;;;;;;3.63;2.78;;;15.60;64.00;;;;;;5036436;28;20108;-85
2023/10/05 00:23:57;;;;;;;4.53;2.88;;;15.50;64.00;;;;;;5036144;28;20029;-85
2023/10/05 00:26:28;;;;;;;4.78;3.00;;;15.50;64.00;;;;;;5035963;28;20029;-85
2023/10/05 00:31:38;;;;;;;4.00;2.90;;;15.50;64.10;;;;;;5035770;28;20033;-85
2023/10/05 00:34:08;;;;;;;5.82;3.15;;;15.50;64.00;;;;;;5035590;28;20021;-85
2023/10/05 00:36:35;;;;;;;5.47;2.97;;;15.50;63.90;;;;;;5034867;28;20073;-84
2023/10/05 00:39:01;;;;;;;4.45;3.00;;;15.50;63.90;;;;;;5035791;28;20360;-84
2023/10/05 00:41:28;;;;;;;4.47;2.85;;;15.40;63.80;;;;;;5034096;28;20025;-85
2023/10/05 00:43:54;;;;;;;5.35;3.10;;;15.40;63.90;;;;;;5035831;28;20029;-84
2023/10/05 00:46:21;;;;;;;4.50;2.80;;;15.40;63.90;;;;;;5034237;28;20032;-84
2023/10/05 00:51:33;;;;;;;4.15;2.50;;;15.40;64.00;;;;;;5035492;28;20494;-84
2023/10/05 00:54:10;;;;;;;4.60;3.10;;;15.40;64.00;;;;;;5036281;28;20037;-83
2023/10/05 00:56:38;;;;;;;5.20;2.67;;;15.40;63.80;;;;;;5035343;28;20480;-84
2023/10/05 00:59:09;;;;;;;3.53;2.65;;;15.40;63.90;;;;;;5039368;28;20025;-84
2023/10/05 01:04:34;;;;;;;3.45;2.50;;;15.40;63.80;;;;;;5055309;28;20040;-83
2023/10/05 01:14:53;;;;;;;4.90;3.25;;;15.30;63.60;;;;;;5044792;28;20036;-84
2023/10/05 01:17:27;;;;;;;4.88;3.03;;;15.30;63.70;;;;;;5053437;28;20037;-84
2023/10/05 01:19:58;;;;;;;4.25;2.97;;;15.20;63.70;;;;;;5053806;28;20120;-83
2023/10/05 01:22:32;;;;;;;4.03;2.83;;;15.20;63.80;;;;;;5054698;28;20483;-84
2023/10/05 01:24:59;;;;;;;3.33;2.50;;;15.20;63.90;;;;;;5058831;28;20032;-83
2023/10/05 01:27:29;;;;;;;5.35;2.95;;;15.10;63.90;;;;;;5061245;28;20033;-82
2023/10/05 01:29:56;;;;;;;3.80;2.92;;;15.10;63.80;;;;;;5052982;28;20154;-84
2023/10/05 01:32:22;;;;;;;4.85;2.88;;;15.10;63.90;;;;;;5053819;28;20379;-85
2023/10/05 01:34:50;;;;;;;4.65;3.05;;;15.00;64.00;;;;;;5053096;28;20025;-85
2023/10/05 01:37:22;;;;;;;4.53;2.75;;;15.00;64.00;;;;;;5054424;28;20061;-85
2023/10/05 01:39:52;;;;;;;4.65;2.95;;;15.00;64.10;;;;;;5054231;28;20021;-84
2023/10/05 01:42:18;;;;;;;3.67;2.50;;;15.00;64.10;;;;;;5052726;28;20064;-85
2023/10/05 01:44:48;;;;;;;4.32;2.40;;;15.00;64.20;;;;;;5036976;28;20029;-85
2023/10/05 01:47:15;;;;;;;4.38;3.10;;;15.00;64.10;;;;;;5041061;28;20047;-86
2023/10/05 01:49:41;;;;;;;3.72;2.78;;;15.00;64.10;;;;;;5052634;28;20485;-84
2023/10/05 01:52:07;;;;;;;5.70;2.70;;;14.90;64.10;;;;;;5054433;28;20028;-83
2023/10/05 01:54:34;;;;;;;3.75;2.70;;;14.90;64.10;;;;;;5038217;28;20040;-84
2023/10/05 01:57:01;;;;;;;4.53;2.85;;;14.90;64.20;;;;;;5038757;28;20040;-83
2023/10/05 01:59:28;;;;;;;2.75;2.53;;;14.90;64.10;;;;;;5038987;28;20053;-84
2023/10/05 02:01:54;;;;;;;4.18;2.83;;;14.90;64.10;;;;;;5037798;28;20068;-84
2023/10/05 02:04:22;;;;;;;3.55;2.67;;;14.90;64.00;;;;;;5040205;28;20037;-84
2023/10/05 02:06:49;;;;;;;4.30;2.80;;;14.80;63.90;;;;;;5056481;28;20037;-85
2023/10/05 02:09:19;;;;;;;3.42;2.72;;;14.80;64.00;;;;;;5043099;28;20026;-83
2023/10/05 02:11:47;;;;;;;3.90;2.80;;;14.80;64.20;;;;;;5038172;28;20037;-83
2023/10/05 02:14:15;;;;;;;4.63;3.25;;;14.70;64.10;;;;;;5038311;28;20148;-84
2023/10/05 02:16:42;;;;;;;3.53;2.85;;;14.70;64.10;;;;;;5037074;28;20391;-83
2023/10/05 02:19:08;;;;;;;4.15;3.22;;;14.70;64.20;;;;;;5038081;28;20040;-84
2023/10/05 02:21:37;;;;;;;4.75;2.63;;;14.70;64.20;;;;;;5046692;28;20037;-85
2023/10/05 02:24:16;;;;;;;3.85;2.58;;;14.70;64.20;;;;;;5041914;28;20057;-84
2023/10/05 02:29:25;;;;;;;6.10;2.75;;;14.70;64.20;;;;;;5038510;28;20033;-84
2023/10/05 02:34:38;;;;;;;4.40;2.50;;;14.70;64.20;;;;;;5056034;28;20131;-84
2023/10/05 02:37:05;;;;;;;4.03;2.42;;;14.60;64.10;;;;;;5039623;28;20053;-83
2023/10/05 02:39:37;;;;;;;3.40;2.60;;;14.60;64.20;;;;;;5036891;28;20033;-83
2023/10/05 02:42:11;;;;;;;3.40;2.60;;;14.60;64.20;;;;;;5037917;28;20092;-83
2023/10/05 02:44:43;;;;;;;3.40;2.50;;;14.50;64.10;;;;;;5055759;28;20031;-83
2023/10/05 02:47:10;;;;;;;3.30;2.40;;;14.50;64.20;;;;;;5058255;28;20032;-83
2023/10/05 02:49:43;;;;;;;3.65;2.60;;;14.40;64.30;;;;;;5057537;28;20032;-83
2023/10/05 02:52:13;;;;;;;3.15;2.50;;;14.40;64.30;;;;;;5047389;28;20029;-84
2023/10/05 02:54:40;;;;;;;3.17;2.70;;;14.40;64.40;;;;;;5041819;28;20045;-83
2023/10/05 02:57:10;;;;;;;3.20;2.63;;;14.30;64.40;;;;;;5037334;28;20373;-84
2023/10/05 02:59:37;;;;;;;3.13;2.63;;;14.30;64.40;;;;;;5035978;28;20029;-83
2023/10/05 03:02:10;;;;;;;3.45;2.47;;;14.30;64.50;;;;;;5036608;28;20407;-83
2023/10/05 03:04:46;;;;;;;3.83;2.70;;;14.20;64.50;;;;;;5052183;28;20025;-83
2023/10/05 03:07:17;;;;;;;3.90;2.70;;;14.20;64.60;;;;;;5039279;28;20037;-83
2023/10/05 03:09:47;;;;;;;3.47;2.55;;;14.20;64.70;;;;;;5035712;28;20029;-84
2023/10/05 03:12:13;;;;;;;3.60;2.65;;;14.10;64.70;;;;;;5031044;28;20438;-84
2023/10/05 03:14:45;;;;;;;3.47;2.80;;;14.10;64.70;;;;;;5056611;28;20025;-83
2023/10/05 03:17:18;;;;;;;3.50;2.65;;;14.10;64.70;;;;;;5056046;28;20441;-84
2023/10/05 03:19:44;;;;;;;4.60;2.40;;;14.10;64.80;;;;;;5049186;28;20025;-83
2023/10/05 03:22:12;;;;;;;2.65;2.40;;;14.10;64.70;;;;;;5037609;28;20325;-84
2023/10/05 03:24:44;;;;;;;3.50;2.60;;;14.10;64.80;;;;;;5037502;28;20029;-84
2023/10/05 03:27:14;;;;;;;4.45;2.85;;;14.10;64.80;;;;;;5037144;28;20025;-85
2023/10/05 03:29:45;;;;;;;4.40;3.00;;;14.10;64.80;;;;;;5035758;28;20482;-85
2023/10/05 03:34:37;;;;;;;4.10;2.97;;;14.00;64.80;;;;;;5056649;28;20035;-85
2023/10/05 03:37:07;;;;;;;4.20;3.10;;;14.00;65.00;;;;;;5064475;28;20485;-85
2023/10/05 03:39:38;;;;;;;4.45;3.10;;;14.00;64.90;;;;;;5054198;28;20491;-84
2023/10/05 03:42:05;;;;;;;3.90;3.00;;;13.90;64.80;;;;;;5042817;28;20051;-84
2023/10/05 03:44:31;;;;;;;4.95;3.00;;;14.00;65.00;;;;;;5051156;28;20071;-85
2023/10/05 03:46:57;;;;;;;3.13;2.55;;;13.90;65.00;;;;;;5055914;28;20421;-85
2023/10/05 03:49:23;;;;;;;3.65;3.05;;;13.90;65.00;;;;;;5055783;28;20054;-85
2023/10/05 03:51:49;;;;;;;4.53;2.75;;;13.90;65.00;;;;;;5049716;28;20048;-85
2023/10/05 03:54:24;;;;;;;3.08;2.47;;;13.90;65.00;;;;;;5049476;28;20026;-85
2023/10/05 03:56:50;;;;;;;3.97;2.78;;;13.90;65.10;;;;;;5047178;28;20072;-86
2023/10/05 03:59:19;;;;;;;5.22;2.90;;;13.90;65.10;;;;;;5048135;28;20021;-85
2023/10/05 04:01:51;;;;;;;3.55;2.67;;;13.90;65.10;;;;;;5045659;28;20033;-85
2023/10/05 04:04:21;;;;;;;3.75;2.78;;;13.90;65.10;;;;;;5045967;28;20030;-85
2023/10/05 04:06:51;;;;;;;3.42;2.67;;;13.90;65.20;;;;;;5044990;28;20037;-84
2023/10/05 04:09:19;;;;;;;4.68;2.88;;;13.90;65.10;;;;;;5046734;28;20034;-86
2023/10/05 04:11:45;;;;;;;3.63;2.67;;;13.90;65.10;;;;;;5052031;28;20036;-85
2023/10/05 04:14:12;;;;;;;5.00;2.80;;;13.90;65.10;;;;;;5051757;28;20069;-77
2023/10/05 04:16:38;;;;;;;3.50;2.60;;;13.90;65.10;;;;;;5045978;28;20490;-76
2023/10/05 04:19:04;;;;;;;3.05;2.50;;;14.00;65.20;;;;;;5056259;28;20155;-84
2023/10/05 04:21:33;;;;;;;5.00;2.95;;;13.90;65.10;;;;;;5049484;28;20055;-71
2023/10/05 04:23:59;;;;;;;4.05;3.08;;;14.00;65.00;;;;;;5036013;28;20025;-82
2023/10/05 04:26:48;;;;;;;3.70;3.00;;;14.00;65.00;;;;;;5039375;28;20064;-82
2023/10/05 04:29:20;;;;;;;5.30;3.35;;;14.00;65.00;;;;;;5041341;28;20087;-83
2023/10/05 04:31:48;;;;;;;5.50;3.30;;;13.80;65.10;;;;;;5047774;28;20037;-84
2023/10/05 04:34:18;;;;;;;5.25;3.28;;;13.90;65.20;;;;;;5053052;28;20029;-78
2023/10/05 04:36:45;;;;;;;4.70;3.53;;;13.70;65.30;;;;;;5034125;28;20144;-82
2023/10/05 04:39:13;;;;;;;4.32;3.13;;;13.70;65.40;;;;;;5036880;28;20030;-75
2023/10/05 04:41:48;;;;;;;4.28;3.10;;;13.70;65.60;;;;;;5034027;28;20025;-70
2023/10/05 04:44:14;;;;;;;5.32;3.10;;;13.60;65.60;;;;;;5038162;28;20025;-80
2023/10/05 04:46:49;;;;;;;5.28;3.30;;;13.60;65.70;;;;;;5045307;28;20486;-81
2023/10/05 04:49:19;;;;;;;4.38;3.13;;;13.70;65.70;;;;;;5041886;28;20392;-79
2023/10/05 04:51:45;;;;;;;6.03;3.20;;;13.70;65.80;;;;;;5044825;28;20036;-79
2023/10/05 04:54:12;;;;;;;4.25;3.35;;;13.70;65.80;;;;;;5044978;28;20455;-80
2023/10/05 04:56:43;;;;;;;4.38;3.22;;;13.70;65.80;;;;;;5054367;28;20463;-81
2023/10/05 05:07:01;;;;;;;5.45;3.17;;;13.60;66.00;;;;;;5034602;28;20487;-81
2023/10/05 05:09:30;;;;;;;4.47;3.20;;;13.70;66.00;;;;;;5035311;28;20025;-80
2023/10/05 05:12:05;;;;;;;4.10;3.05;;;13.70;66.00;;;;;;5033334;28;20084;-80
2023/10/05 05:14:33;;;;;;;;;;;13.70;66.00;;;;;;5034040;28;20029;-81
2023/10/05 05:17:06;;;;;;;5.20;3.40;;;13.70;66.10;;;;;;5045122;28;19912;-82
2023/10/05 05:19:32;;;;;;;4.00;3.30;;;13.70;66.00;;;;;;5037799;28;20095;-81
2023/10/05 05:22:02;;;;;;;5.30;3.38;;;13.70;66.00;;;;;;5037689;28;20082;-80
2023/10/05 05:24:29;;;;;;;5.50;3.58;;;13.70;66.10;;;;;;5052946;28;20031;-80
2023/10/05 05:27:00;;;;;;;5.95;3.08;;;13.70;66.10;;;;;;5049333;28;20112;-80
2023/10/05 05:29:35;;;;;;;4.32;2.95;;;13.80;66.20;;;;;;5036791;28;20121;-82
2023/10/05 05:32:07;;;;;;;6.68;2.92;;;13.80;66.10;;;;;;5052298;28;20061;-81
2023/10/05 05:34:33;;;;;;;4.13;2.80;;;13.90;66.10;;;;;;5049091;28;20090;-81
2023/10/05 05:36:59;;;;;;;4.10;3.38;;;13.90;66.00;;;;;;5033849;28;20045;-81
2023/10/05 05:39:26;;;;;;;4.25;3.03;;;14.00;66.00;;;;;;5040969;28;20136;-80
2023/10/05 05:42:06;;;;;;;3.53;2.88;;;14.00;66.00;;;;;;5032404;28;20517;-81
2023/10/05 05:44:34;;;;;;;4.13;2.75;;;14.10;66.00;;;;;;5032535;28;20056;-80
2023/10/05 05:47:08;;;;;;;4.68;3.10;;;14.10;66.00;;;;;;5032823;28;20025;-81
2023/10/05 05:49:34;;;;;;;6.07;2.90;;;14.20;65.90;;;;;;5051486;28;20044;-80
2023/10/05 05:51:59;;;;;;;4.28;3.10;;;14.20;65.80;;;;;;5047759;28;20048;-82
2023/10/05 05:54:30;;;;;;;6.47;3.25;;;14.20;65.80;;;;;;5060184;28;20533;-83
2023/10/05 05:56:57;;;;;;;3.75;3.00;;;14.20;65.70;;;;;;5046321;28;20029;-81
2023/10/05 05:59:22;;;;;;;4.20;3.13;;;14.30;65.80;;;;;;5032882;28;20038;-79
2023/10/05 06:01:50;;;;;;;5.43;2.80;;;14.30;65.90;;;;;;5037022;28;20028;-80
2023/10/05 06:04:19;;;;;;;3.25;2.78;;;14.30;65.80;;;;;;5044548;28;20025;-81
2023/10/05 06:06:48;;;;;;;3.75;2.80;;;14.40;65.80;;;;;;5043565;28;20111;-86
2023/10/05 06:09:19;;;;;;;5.50;2.80;;;14.40;65.80;;;;;;5042928;28;20426;-85
2023/10/05 06:11:51;;;;;;;5.75;2.92;;;14.50;65.80;;;;;;5049241;28;20029;-85
2023/10/05 06:14:17;;;;;;;4.15;3.03;;;14.50;65.80;;;;;;5039298;28;20021;-84
2023/10/05 06:16:43;;;;;;;4.82;2.80;;;14.60;65.80;;;;;;5043088;28;20510;-80
2023/10/05 06:19:09;;;;;;;3.15;2.60;;;14.60;65.70;;;;;;5045530;28;20025;-84
2023/10/05 06:21:35;;;;;;;4.05;2.90;;;14.60;65.60;;;;;;5044026;28;20029;-81
2023/10/05 06:24:02;;;;;;;3.58;2.65;;;14.70;65.70;;;;;;5040784;28;20021;-76
2023/10/05 06:26:30;;;;;;;3.88;2.75;;;14.70;65.60;;;;;;5047374;28;20071;-80
2023/10/05 06:28:56;;;;;;;3.10;2.42;;;14.80;65.60;;;;;;5045376;28;20117;-81
2023/10/05 06:31:22;;;;;;;5.80;2.60;;;14.90;65.60;;;;;;5041594;28;20119;-78
2023/10/05 06:33:48;;;;;;;5.32;2.85;;;14.90;65.60;;;;;;5042257;28;20017;-80
2023/10/05 06:36:14;;;;;;;3.33;2.50;;;15.00;65.50;;;;;;5042504;28;20049;-73
2023/10/05 06:38:39;;;;;;;3.25;2.58;;;15.10;65.40;;;;;;5042919;28;20042;-81
2023/10/05 06:41:05;;;;;;;3.55;2.80;;;15.10;65.20;;;;;;5044427;28;20060;-78
2023/10/05 06:43:35;;;;;;;3.60;2.80;;;15.20;65.20;;;;;;5048493;28;20021;-86
2023/10/05 06:46:17;;;;;;;2.95;2.50;;;15.30;65.10;;;;;;5050395;28;20411;-84
2023/10/05 06:48:43;;;;;;;3.45;2.63;;;15.30;65.10;;;;;;5058157;28;20021;-84
2023/10/05 06:51:09;;;;;;;3.92;2.58;;;15.40;65.00;;;;;;5045745;28;20451;-84
2023/10/05 06:53:37;;;;;;;3.67;2.42;;;15.40;65.00;;;;;;5045419;28;20044;-81
2023/10/05 06:56:03;;;;;;;5.72;2.95;;;15.40;64.90;;;;;;5044924;28;20025;-84
2023/10/05 06:58:29;;;;;;;4.22;2.70;;;15.50;64.90;;;;;;5047303;28;20116;-82
2023/10/05 07:00:54;;;;;;;2.85;2.05;;;15.60;64.80;;;;;;5048531;28;20495;-84
2023/10/05 07:03:20;;;;;;;4.03;2.80;;;15.60;64.70;;;;;;5041770;28;20025;-83
2023/10/05 07:05:47;;;;;;;4.80;2.58;;;15.70;64.60;;;;;;5047337;28;20056;-84
2023/10/05 07:08:14;;;;;;;3.45;2.63;;;15.70;64.50;;;;;;5046968;28;20033;-78
2023/10/05 07:10:41;;;;;;;14.75;11.13;;;15.70;64.50;;;;;;5034882;28;20025;-84
2023/10/05 07:13:08;;;;;;;3.88;2.75;;;15.80;64.60;;;;;;5047639;28;20025;-78
2023/10/05 07:15:35;;;;;;;4.47;2.78;;;15.80;64.60;;;;;;5048983;28;20030;-87
2023/10/05 07:18:00;;;;;;;2.78;2.50;;;15.80;64.40;;;;;;5049527;28;20029;-85
2023/10/05 07:20:27;;;;;;;3.80;2.60;;;15.90;64.40;;;;;;5051212;28;20028;-85
2023/10/05 07:22:54;;;;;;;4.90;2.80;;;16.00;64.40;;;;;;5051753;28;20043;-83
2023/10/05 07:25:21;;;;;;;2.65;2.30;;;16.00;64.20;;;;;;5049098;28;20022;-84
2023/10/05 07:27:47;;;;;;;3.75;2.45;;;16.00;64.20;;;;;;5052711;28;20021;-85
2023/10/05 07:30:14;;;;;;;2.65;2.30;;;16.00;64.20;;;;;;5050270;28;20041;-88
2023/10/05 07:32:41;;;;;;;3.50;2.20;;;16.10;64.20;;;;;;5055832;28;20025;-88
2023/10/05 07:35:07;;;;;;;3.42;2.50;;;16.10;64.20;;;;;;5048829;28;20025;-86
2023/10/05 07:37:35;;;;;;;2.95;2.28;;;16.10;63.90;;;;;;5049109;28;20037;-83
2023/10/05 07:40:04;;;;;;;3.30;2.40;;;16.10;64.00;;;;;;5048348;28;20017;-82
2023/10/05 07:42:30;;;;;;;2.42;2.20;;;16.20;64.00;;;;;;5053344;28;20025;-89
2023/10/05 07:44:57;;;;;;;2.45;2.15;;;16.20;63.80;;;;;;5063730;28;20101;-87
2023/10/05 07:47:24;;;;;;;3.17;2.40;;;16.20;63.90;;;;;;5067597;28;20040;-86
2023/10/05 07:49:53;;;;;;;3.47;2.58;;;16.20;63.70;;;;;;5061508;28;20421;-88
2023/10/05 07:52:19;;;;;;;3.47;2.17;;;16.30;63.70;;;;;;5061096;28;20079;-88
2023/10/05 07:54:45;;;;;;;4.30;2.60;;;16.30;63.80;;;;;;5055248;28;20030;-87
2023/10/05 07:57:11;;;;;;;3.97;2.40;;;16.30;63.70;;;;;;5055851;28;20037;-86
2023/10/05 07:59:41;;;;;;;4.07;2.35;;;16.40;63.60;;;;;;5059892;28;20029;-85
2023/10/05 08:02:14;;;;;;;3.28;2.20;;;16.40;64.00;;;;;;5065234;28;20005;-86
2023/10/05 08:04:40;;;;;;;3.50;2.63;;;16.50;63.40;;;;;;5059756;28;20028;-89
2023/10/05 08:07:07;;;;;;;4.15;2.50;;;16.50;63.40;;;;;;5051657;28;20104;-85
2023/10/05 08:09:34;;;;;;;2.92;2.25;;;16.50;63.20;;;;;;5050018;28;20034;-79
2023/10/05 08:12:00;;;;;;;4.05;2.33;;;16.60;63.10;;;;;;5045461;28;20136;-79
2023/10/05 08:14:30;;;;;;;4.00;2.40;;;16.60;63.00;;;;;;5043931;28;20068;-76
2023/10/05 08:16:56;;;;;;;3.80;2.40;;;16.70;62.90;;;;;;5043659;28;20025;-77
2023/10/05 08:19:25;;;;;;;2.97;2.20;;;16.70;62.60;;;;;;5044359;28;20048;-81
2023/10/05 08:21:53;;;;;;;4.05;2.40;;;16.70;62.50;;;;;;5046886;28;20431;-81
2023/10/05 08:24:20;;;;;;;2.88;2.28;;;16.80;62.50;;;;;;5044652;28;20059;-79
2023/10/05 08:26:48;;;;;;;3.53;2.20;;;16.80;62.50;;;;;;5044079;28;20029;-79
2023/10/05 08:29:16;;;;;;;4.65;2.35;;;16.90;62.30;;;;;;5044354;28;20108;-79
2023/10/05 08:31:44;;;;;;;3.50;2.45;;;16.90;62.00;;;;;;5053655;28;20515;-79
2023/10/05 08:34:20;;;;;;;3.45;2.42;;;16.90;62.00;;;;;;5056740;28;20021;-79
2023/10/05 08:36:49;;;;;;;4.20;2.50;;;16.90;61.80;;;;;;5066732;28;20080;-77
2023/10/05 08:39:15;;;;;;;4.45;2.70;;;16.90;61.70;;;;;;5054706;28;20033;-82
2023/10/05 08:41:42;;;;;;;6.05;2.80;;;17.00;61.70;;;;;;5048982;28;20041;-82
2023/10/05 08:44:27;;;;;;;4.03;2.78;;;17.00;61.50;;;;;;5045395;28;20026;-81
2023/10/05 08:46:55;;;;;;;3.70;2.38;;;17.00;61.20;;;;;;5046116;28;20060;-81
2023/10/05 08:49:23;;;;;;;4.68;2.72;;;17.00;61.10;;;;;;5041692;28;20044;-79
2023/10/05 08:51:50;;;;;;;5.80;2.72;;;17.10;60.90;;;;;;5043376;28;20386;-82
2023/10/05 08:54:21;;;;;;;3.70;2.50;;;17.10;60.60;;;;;;5042801;28;20029;-81
2023/10/05 08:56:48;;;;;;;5.55;2.50;;;17.10;60.50;;;;;;5042912;28;20037;-80
2023/10/05 08:59:14;;;;;;;4.28;2.60;;;17.20;60.30;;;;;;5043813;28;20056;-82
2023/10/05 09:01:45;;;;;;;4.28;2.30;;;17.20;60.10;;;;;;5043278;28;20022;-81
2023/10/05 09:06:59;;;;;;;4.07;2.20;;;17.30;60.00;;;;;;5044372;28;20028;-82
2023/10/05 09:09:39;;;;;;;4.65;2.15;;;17.40;59.90;;;;;;5051037;28;20086;-81
2023/10/05 09:12:32;;;;;;;4.20;2.65;;;17.50;59.90;;;;;;5046790;28;20464;-81
2023/10/05 09:17:57;;;;;;;3.03;2.40;;;17.60;59.90;;;;;;5044662;28;20048;-80
2023/10/05 09:20:31;;;;;;;3.03;2.30;;;17.70;59.60;;;;;;5042856;28;20078;-82
2023/10/05 09:23:00;;;;;;;2.90;2.05;;;17.70;59.40;;;;;;5043597;28;20051;-86
2023/10/05 09:25:32;;;;;;;5.13;2.50;;;17.70;59.40;;;;;;5049611;28;20044;-84
2023/10/05 09:28:07;;;;;;;4.63;2.47;;;17.80;59.40;;;;;;5048993;28;20045;-85
2023/10/05 09:30:33;;;;;;;3.50;2.25;;;17.90;59.40;;;;;;5046016;28;20163;-84
2023/10/05 09:33:15;;;;;;;4.45;2.22;;;17.90;59.20;;;;;;5046883;28;20368;-82
2023/10/05 09:35:46;;;;;;;4.95;2.40;;;18.00;59.00;;;;;;5043813;28;20043;-84
2023/10/05 09:38:15;;;;;;;3.40;2.30;;;18.10;59.00;;;;;;5047678;28;20037;-84
2023/10/05 09:40:46;;;;;;;5.60;2.40;;;18.10;58.70;;;;;;5043630;28;20018;-83
2023/10/05 09:43:21;;;;;;;6.20;2.35;;;18.10;58.40;;;;;;5042170;28;20398;-83
2023/10/05 09:45:52;;;;;;;;;;;18.10;58.20;;;;;;5044891;28;20096;-84
2023/10/05 09:48:20;;;;;;;4.55;2.58;;;18.20;57.90;;;;;;5041391;28;19991;-84
2023/10/05 09:50:47;;;;;;;3.40;2.42;;;18.20;57.50;;;;;;5042562;28;20038;-80
2023/10/05 09:53:18;;;;;;;3.70;2.60;;;18.20;57.70;;;;;;5040680;28;20033;-80
2023/10/05 09:55:49;;;;;;;4.20;2.70;;;18.30;57.70;;;;;;5042426;28;20022;-85
2023/10/05 09:58:18;;;;;;;3.72;2.45;;;18.30;57.50;;;;;;5041290;28;20033;-82
2023/10/05 10:03:10;;;;;;;4.38;2.40;;;18.40;57.20;;;;;;5045565;28;20108;-83
2023/10/05 10:05:44;;;;;;;4.82;2.40;;;18.40;57.30;;;;;;5043308;28;20079;-85
2023/10/05 10:08:20;;;;;;;5.35;2.38;;;18.50;57.30;;;;;;5043883;28;20021;-85
2023/10/05 10:11:17;;;;;;;4.05;2.15;;;18.50;57.20;;;;;;5042339;28;20091;-82
2023/10/05 10:13:51;;;;;;;3.53;2.20;;;18.60;56.90;;;;;;5051367;28;20025;-83
2023/10/05 10:16:22;;;;;;;5.63;2.80;;;18.70;56.80;;;;;;5054629;28;20031;-81
2023/10/05 10:19:08;;;;;;;3.60;2.17;;;18.70;56.60;;;;;;5049700;28;20025;-78
2023/10/05 10:21:41;;;;;;;3.15;2.08;;;18.80;56.20;;;;;;5056750;28;20033;-88
2023/10/05 10:24:11;;;;;;;4.00;2.60;;;18.80;55.90;;;;;;5064210;28;20033;-89
2023/10/05 10:26:45;;;;;;;4.57;2.30;;;18.80;55.90;;;;;;5070550;28;20100;-79
2023/10/05 10:29:16;;;;;;;4.50;2.70;;;18.90;55.80;;;;;;5051405;28;20047;-78
2023/10/05 10:31:42;;;;;;;3.55;2.33;;;18.90;55.70;;;;;;5043471;28;20021;-79
2023/10/05 10:34:28;;;;;;;2.92;1.90;;;19.00;55.80;;;;;;5042638;28;20099;-81
2023/10/05 10:36:57;;;;;;;3.55;2.03;;;19.00;55.50;;;;;;5050331;28;20132;-82
2023/10/05 10:39:24;;;;;;;5.68;2.70;;;19.00;55.50;;;;;;5046103;28;20567;-80
2023/10/05 10:42:01;;;;;;;3.90;2.47;;;19.10;55.50;;;;;;5046805;28;20430;-85
2023/10/05 10:44:27;;;;;;;5.53;2.80;;;19.10;55.00;;;;;;5051161;28;20021;-86
2023/10/05 10:47:08;;;;;;;4.20;2.15;;;19.10;55.00;;;;;;5049267;28;20029;-84
2023/10/05 10:49:35;;;;;;;3.08;2.10;;;19.20;54.90;;;;;;5051846;28;20021;-84
2023/10/05 10:52:02;;;;;;;5.75;2.50;;;19.20;54.90;;;;;;5049807;28;20025;-83
2023/10/05 10:54:33;;;;;;;4.15;2.10;;;19.30;54.90;;;;;;5049882;28;20029;-81
2023/10/05 10:56:59;;;;;;;5.32;2.60;;;19.40;54.50;;;;;;5049217;28;20116;-84
2023/10/05 10:59:26;;;;;;;3.85;2.45;;;19.40;54.00;;;;;;5049252;28;20075;-86
2023/10/05 11:01:59;;;;;;;4.43;2.78;;;19.40;53.80;;;;;;5049080;28;20467;-82
2023/10/05 11:04:36;;;;;;;4.57;2.72;;;19.50;54.00;;;;;;5051490;28;20113;-87
2023/10/05 11:07:08;;;;;;;3.83;2.33;;;19.50;53.90;;;;;;5049710;28;20441;-83
2023/10/05 11:09:48;;;;;;;3.97;2.03;;;19.50;53.80;;;;;;5047035;28;20017;-76
2023/10/05 11:12:17;;;;;;;4.45;2.70;;;19.60;53.80;;;;;;5046518;28;20030;-82
2023/10/05 11:14:43;;;;;;;4.30;2.45;;;19.60;53.50;;;;;;5055730;28;20097;-87
2023/10/05 11:17:35;;;;;;;4.20;2.50;;;19.60;53.40;;;;;;5050197;28;20112;-85
2023/10/05 11:20:20;;;;;;;2.90;2.20;;;19.70;53.30;;;;;;5045580;28;20352;-85
2023/10/05 11:22:46;;;;;;;;;;;19.70;53.50;;;;;;5047041;28;20033;-86
2023/10/05 11:25:15;;;;;;;4.43;2.50;;;19.80;52.80;;;;;;5046708;28;19909;-86
2023/10/05 11:27:44;;;;;;;4.32;2.50;;;19.80;53.40;;;;;;5058770;28;20482;-84
2023/10/05 11:30:21;;;;;;;4.93;2.65;;;19.80;53.20;;;;;;5048834;28;20024;-82
2023/10/05 11:32:49;;;;;;;4.15;2.55;;;19.90;53.00;;;;;;5037558;28;20098;-85
2023/10/05 11:35:15;;;;;;;3.50;2.45;;;19.90;52.70;;;;;;5040013;28;20033;-82
2023/10/05 11:37:44;;;;;;;3.75;2.60;;;20.00;52.50;;;;;;5043686;28;20388;-84
2023/10/05 11:40:23;;;;;;;4.28;2.83;;;20.00;52.40;;;;;;5049446;28;20017;-83
2023/10/05 11:42:50;;;;;;;4.50;2.72;;;20.10;52.30;;;;;;5047731;28;20022;-81
2023/10/05 11:45:19;;;;;;;3.83;2.50;;;20.20;52.40;;;;;;5052457;28;20053;-85
2023/10/05 11:47:52;;;;;;;4.25;2.67;;;20.30;52.10;;;;;;5056828;28;20025;-87
2023/10/05 11:50:25;;;;;;;3.22;2.25;;;20.30;51.90;;;;;;5051935;28;20018;-86
2023/10/05 11:52:52;;;;;;;3.85;2.60;;;20.40;51.90;;;;;;5049674;28;20075;-87
2023/10/05 11:55:19;;;;;;;3.53;2.35;;;20.40;51.90;;;;;;5049270;28;20039;-86
2023/10/05 11:57:44;;;;;;;4.05;2.63;;;20.50;52.00;;;;;;5050401;28;20083;-87
2023/10/05 12:00:16;;;;;;;4.40;2.80;;;20.50;51.90;;;;;;5057405;28;20028;-89
2023/10/05 12:02:43;;;;;;;4.22;2.38;;;20.60;52.00;;;;;;5059734;28;20029;-86
2023/10/05 12:05:10;;;;;;;3.00;1.92;;;20.60;52.00;;;;;;5052338;28;20151;-85
2023/10/05 12:07:41;;;;;;;3.42;2.15;;;20.60;52.00;;;;;;5051252;28;20033;-87
2023/10/05 12:10:13;;;;;;;4.95;2.33;;;20.60;51.70;;;;;;5057823;28;20455;-77
2023/10/05 12:12:44;;;;;;;4.40;2.55;;;20.60;51.60;;;;;;5049909;28;20025;-85
2023/10/05 12:15:12;;;;;;;4.90;2.55;;;20.70;51.50;;;;;;5053669;28;20033;-85
2023/10/05 12:17:40;;;;;;;3.90;2.17;;;20.70;51.60;;;;;;5054671;28;20115;-83
2023/10/05 12:20:08;;;;;;;3.13;2.10;;;20.70;51.40;;;;;;5051144;28;20030;-87
2023/10/05 12:22:37;;;;;;;3.85;2.47;;;20.70;51.20;;;;;;5052747;28;20024;-88
2023/10/05 12:25:07;;;;;;;3.35;2.25;;;20.80;51.20;;;;;;5050052;28;20017;-88
2023/10/05 12:27:35;;;;;;;5.00;2.50;;;20.90;51.00;;;;;;5047079;28;20025;-88
2023/10/05 12:30:15;;;;;;;5.30;2.60;;;20.90;50.60;;;;;;5048083;28;20108;-82
2023/10/05 12:32:41;;;;;;;3.90;2.50;;;20.90;50.80;;;;;;5048677;28;20028;-83
2023/10/05 12:35:13;;;;;;;3.90;2.30;;;20.90;50.60;;;;;;5045186;28;20025;-83
2023/10/05 12:37:44;;;;;;;3.78;2.38;;;20.90;50.60;;;;;;5044316;28;20048;-78
2023/10/05 12:40:20;;;;;;;4.97;2.70;;;20.90;50.10;;;;;;5040278;28;20068;-83
2023/10/05 12:42:53;;;;;;;38.15;31.25;;;20.90;50.00;;;;;;5040683;28;20450;-79
2023/10/05 12:45:23;;;;;;;3.30;2.50;;;20.90;50.20;;;;;;5040184;28;20025;-85
2023/10/05 12:47:54;;;;;;;3.63;2.30;;;20.90;50.50;;;;;;5040286;28;20434;-84
2023/10/05 12:50:22;;;;;;;4.35;2.20;;;21.00;50.50;;;;;;5035848;28;20083;-75
2023/10/05 12:52:51;;;;;;;3.55;2.20;;;21.10;50.50;;;;;;5051090;28;20104;-84
2023/10/05 12:55:22;;;;;;;4.00;2.25;;;21.10;50.50;;;;;;5055549;28;20048;-82
2023/10/05 12:57:50;;;;;;;5.50;2.78;;;21.20;50.40;;;;;;5049250;28;20060;-82
2023/10/05 13:00:31;;;;;;;3.40;2.13;;;21.20;50.00;;;;;;5042534;28;20036;-82
2023/10/05 13:03:00;;;;;;;3.25;2.20;;;21.30;49.90;;;;;;5038699;28;20034;-83
2023/10/05 13:05:31;;;;;;;3.53;2.20;;;21.40;50.00;;;;;;5049111;28;20120;-81
2023/10/05 13:08:20;;;;;;;3.63;2.47;;;21.40;50.40;;;;;;5057411;28;20029;-85
2023/10/05 13:10:46;;;;;;;6.03;3.72;;;21.50;49.40;;;;;;5037957;28;20045;-71
2023/10/05 13:13:20;;;;;;;4.55;2.70;;;21.60;49.80;;;;;;5040794;28;20028;-76
2023/10/05 13:15:47;;;;;;;4.00;2.30;;;21.60;50.20;;;;;;5040846;28;20491;-77
2023/10/05 13:18:18;;;;;;;3.45;2.17;;;21.80;49.70;;;;;;5034813;28;20059;-79
2023/10/05 13:20:55;;;;;;;6.03;2.70;;;21.80;48.90;;;;;;5043237;28;20029;-78
2023/10/05 13:23:22;;;;;;;4.72;2.58;;;21.80;48.10;;;;;;5057580;28;20049;-88
2023/10/05 13:25:52;;;;;;;4.30;2.65;;;21.70;48.20;;;;;;5039775;28;20416;-84
2023/10/05 13:28:19;;;;;;;4.03;2.40;;;21.70;48.40;;;;;;5033779;28;20037;-83
2023/10/05 13:30:50;;;;;;;4.60;2.50;;;21.80;48.40;;;;;;5033116;28;20036;-78
2023/10/05 13:33:39;;;;;;;3.70;2.20;;;21.80;48.40;;;;;;5035898;28;20113;-81
2023/10/05 13:36:07;;;;;;;2.30;1.73;;;22.00;48.30;;;;;;5034305;28;20049;-80
2023/10/05 13:38:36;;;;;;;4.65;2.60;;;22.10;48.10;;;;;;5045774;28;20043;-80
2023/10/05 13:43:36;;;;;;;4.07;2.60;;;22.20;47.30;;;;;;5047119;28;20032;-79
2023/10/05 13:48:39;;;;;;;3.83;2.20;;;22.40;47.50;;;;;;5043994;28;20609;-80